Member area
Imprimable
Lapugnoy, 26/02/2017, FRA - Trail des Givrés
List of reports > 25km - Result
Search: Page: [1]
492 Entries
 
Complains are not accepted anymore. Results are final.
Category
PosNrNameAgeNATTeamRealTimeTkmMoy.PlaceNameCity
1.2493SY ANTOINE29FRA1:36:071:36:073:51 15.611sehDOUAI
2.2196BOUTON RAPHAEL35FRASERVINS AC1:37:391:37:393:55 15.362sehESTREE CAUCHY
3.2148SENECHAL JEREMY32FRACOB1:39:381:39:384:00 15.063sehMELLEVILLE
4.2463FIÉVET GUILLAUME39FRAARTOIS BRUAY1:40:451:40:454:02 14.894sehNOEUX LES MINES
5.2462DEMBRI KARIM35FRAARTOIS ATHLÉTIS1:43:151:43:154:08 14.535sehBRUAY LA BUISSIERE
6.2446CATOIRE BASTIEN28FRAACVA SECTION TR1:43:231:43:234:09 14.516sehSAINT ANDRE LEZ LILLE
7.2484DETRE MICHEL30FRAAC VILLENEUVE D1:43:251:43:254:09 14.507sehSEQUEDIN
8.2429MEURILLON HERVE53FRAARTOIS ATHLETIS1:43:421:43:424:09 14.471v2hGOSNAY
9.2300RENARD FREDERIC37FRATEAM VOLCANO1:47:341:47:344:19 13.958sehMALLEVILLE SUR LE BEC
10.2418RABETTE QUENTIN28FRAVAFA1:48:031:48:034:20 13.889sehLORGIES
11.2037MAERTENS THOMAS37FRA1:48:511:48:514:22 13.7810sehLAPUGNOY
12.2479LORIDAN LUDOVIC37FRACOURIR A GRAVEL1:48:561:48:564:22 13.7711sehSAINT PIERRE BROUCK
13.2301DELBECQUE ANTOINE22FRA1:49:081:49:084:22 13.741eshGONNEHEM
14.2074BERTHIER THOMAS37FRAUS MARQUETTE1:49:331:49:334:23 13.6912sehLILLE
15.2279VASSEUR GRÉGORY39FRARUNNING CLUB NO1:49:431:49:444:24 13.6713sehNOYELLES SOUS LENS
16.2501BARBIER LUDOVIC37FRABLARINGHEM TRAI1:50:401:50:414:26 13.5514sehSAINT VENANT
17.2352DUCATEZ CHRISTOPHE36FRAARTOIS ATHLETIS1:50:591:51:004:27 13.5115sehREBREUVE-RANCHICOURT
18.2460DAMBRUNE JULIEN31FRA1:51:191:51:204:28 13.4716sehHAILLICOURT
19.2487GODET VALENTIN25FRA1:52:171:52:304:30 13.3317sehHALLENNES LEZ HAUBOURDIN
20.2176ROBILLART MIGUEL29FRASERVINS ATHLETI1:52:491:52:494:31 13.3018sehARRAS
21.2221SALINGUE GEOFFREY39FRATEAM KEEP COOL 1:54:241:54:244:35 13.1119sehLILLE
22.2263GONGORA SÉBASTIEN43FRABLARINGHEM TRAI1:54:261:54:274:35 13.111v1hECQUES
23.2482LEMPEREUR JEAN44FRAHEM ATHLETIC C1:54:481:54:504:36 13.062v1hCROIX
24.2219FACQ GREGORY41FRA1:55:061:55:064:37 13.033v1hHAUBOURDIN
25.2473STEFANSKI JONATHAN36FRA1:55:141:55:154:37 13.0220sehATTICHES
26.2434MANGARD NICOLAS35FRATEAM TRAIL 621:55:531:55:594:39 12.9321sehDESVRES
27.2172DEBACKER FABRICE54FRAFABTEAM1:56:561:57:044:41 12.812v2hWAMBRECHIES
28.2538TRIQUET PAUL32FRA1:57:301:57:334:43 12.7622sehHENIN BEAUMONT
29.2515MARLIER CHRISTOPHE34FRALILLE UC1:57:441:57:464:43 12.7423sehLILLE
30.2340CARON PIERRE43FRASAINT-VENANT AT1:58:011:58:034:44 12.714v1hSAINT VENANT
31.2060DELERUE CÉDRIC35FRABETHUNE ATHLETI1:58:041:58:074:44 12.7024sehHINGES
32.2138DEBRUYNE CLEMENT29FRA1:58:221:58:234:45 12.6725sehARRAS
33.2299WITKOWSKI YOANN32FRA1:59:231:59:284:47 12.5626seh62870
34.2163ROGEZ ANTOINE28FRA1:59:351:59:374:48 12.5427sehLIEVIN
35.2510COUSIN ANTOINE33FRA2:00:122:00:134:49 12.4828sehOPPY
36.2295BISIAUX LIONEL45FRA2:00:142:00:264:50 12.465v1hLA MADELEINE
37.2520SIX NICOLAS36FRA2:00:332:00:354:50 12.4429sehLILLE
38.2443BERTELOOT JACKIE58FRALONGUENESSE NAT2:00:362:00:414:50 12.433v2h62500
39.2327LENOTRE MATHIEU33FRA2:00:452:00:474:50 12.4230sehABBEVILLE
40.2262PLATON GILLES48FRA2:00:592:01:014:51 12.406v1hACHEUX EN VIMEU
41.2467DELMOTTE GÉRARD-ALEXANDRE40FRAJOGGING CLUB LI2:01:002:01:114:51 12.387v1hBONNINGUES-LES-ARDRES
42.2170ROKIA VALERY43FRAVILLENEUVE D'AS2:01:262:01:264:52 12.358v1hILLIES
43.2166VANDOMME JULIEN38FRA2:01:112:01:294:52 12.3531sehBLENDECQUES
44.2447BEAUSSART SÉBASTIEN42FRAHUMANIS2:01:262:01:334:52 12.349v1hDOUVRIN
45.2208LEBÈGUE HUGUES29FRA2:01:432:01:464:53 12.3232sehROOST WARENDIN
46.2232MAINARDI NICOLAS37FRA2:01:562:01:564:53 12.3033sehMÉTEREN
47.2474DANET LAURENT50FRACLLA ARMENTIERE2:01:512:01:574:53 12.304v2hNEUF BERQUIN
48.2338FARDOUX GAUTHIER29FRABLARINGHEM TRAI2:02:042:02:054:53 12.2934sehBLARINGHEM
49.2364PELCAT JÉRÔME39FRABLARINGHEM TRAI2:02:042:02:064:54 12.2935sehISBERGUES
50.2357BARRAS ROMAIN29FRA2:02:052:02:124:54 12.2836sehLAMBERSART
51.2186MILETTI GÉRALD43FRA2:02:152:02:234:54 12.2610v1hVERSAILLES
52.2022CHAUMET OLIVIER47FRAVAFA /SECTION T2:02:422:02:424:55 12.2311v1hFLERS EN ESCREBIEUX
53.2391MANTEZ OLIVIER51FRAAS MARCK2:02:502:02:524:55 12.215v2hCALAIS
54.2202COLOMB BERTRAND42FRAANZIN SAINT AUB2:02:532:02:534:55 12.2112v1hANZIN SAINT AUBIN
55.2070THIBAUT PHILIPPE51FRATRIATHLON LITTO2:03:022:03:064:56 12.196v2hDUNKERQUE
56.2175MESPLOMB MERRY51FRAACVA2:03:002:03:104:56 12.187v2hMARQUETTE LEZ LILLE
57.2393ANGLADE ANTOINE38FRAFOOTING CLUB DE2:03:142:03:344:57 12.1437sehBOURS
58.2020VANDENKERCKHOVE HUGUES46FRALES COURANTS D'2:03:382:03:384:57 12.1313v1hBOURS
59.2395BIGI JOHANN34FRA2:03:352:03:424:57 12.1338sehALLOUAGNE
60.2179VINCENT CEDRIC41FRA2:03:372:03:514:58 12.1114v1hMARLES LES MINES
61.2496MOGUET FREDDY42FRARCA TRIATHLON2:03:502:04:094:58 12.0815v1hCHÉRISY
62.2303LAMBERT PHILIPPE49FRA2:04:202:04:224:59 12.0616v1hHAILLICOURT
63.2471BUN OLIVIER36FRA2:04:192:04:254:59 12.0639sehARQUES
64.2339FACHE MATHIEU34FRARATING CLUB ARR2:04:102:04:304:59 12.0540sehATHIES
65.2505PRUVOST LOUIS30FRAACVA2:04:452:04:465:00 12.0241sehLILLE
66.2533CARRE JESSY42FRA2:04:552:05:005:00 12.0017v1hST OMER
67.2381DEROO FRANÇOIS33FRACLLL ARMENTIÈRE2:04:562:05:035:01 12.0042sehBOESCHEPE
68.2426NEVEU JACQUES62FRA2:05:202:05:205:01 11.971v3hTINCQUES
69.2047LECLERC ALEXANDRE34FRA2:05:182:05:315:02 11.9543sehBETHUNE
70.2275ACKET SYLVAIN42FRA2:05:302:05:345:02 11.9518v1hDUNKERQUE
71.2224VEREECKE VALENTIN26FRA2:05:392:05:395:02 11.9444sehLILLE
72.2318DOUILLET ANTOINE35FRA2:05:402:05:455:02 11.9345sehPIHEM
73.2093LIENARD BENOIT46FRADAINVILLE AC2:06:012:06:025:03 11.9019v1hATHIES
74.2050HALATYN NICOLAS38FRA2:05:442:06:035:03 11.9046sehHEM
75.2088HERBERT SÉBASTIEN44FRATRIATHLON CLUB 2:06:072:06:075:03 11.8920v1hLA MADELEINE
76.2115BERTIN PASCAL50FRA2:05:432:06:095:03 11.898v2hMARCQ EN BAROEUL
77.2494CHOPIN JULIEN39FRA2:06:012:06:105:03 11.8947sehWAHAGNIES
78.2453JEANROY EMMANUEL41FRA2:06:082:06:135:03 11.8821v1hSAILLY LABOURSE
79.2445SOWINSKI FABRICE43FRAAUVERGNE TRAIL 2:06:072:06:165:04 11.8822v1hBRUAY LA BUISSIERE
80.2500SCHEERS CYRIL32FRA2:06:032:06:175:04 11.8848sehMERVILLE
81.2087HECQUET XAVIER36FRA2:06:252:06:315:04 11.8649sehLOCON
82.2203DAUCHEZ MAXIME27FRA2:06:272:06:325:04 11.8550sehLILLE
83.2549FLAMMIA GIACOMO33FRA2:06:422:06:425:05 11.8451seh
84.2329DIVRY CLEMENT30FRA2:06:422:06:435:05 11.8452sehHENIN BEAUMONT
85.2167DUPLA LAURENT47FRA2:06:462:06:495:05 11.8323v1hSOUCHEZ
86.2045GAJEWSKI DAVID47FRAARTOIS ATHLÉTIS2:06:342:06:505:05 11.8324v1hAUCHEL
87.2413TURPIN DAVID-MAURICE46FRATOTAL PLATEFORM2:06:402:06:515:05 11.8325v1hSAINT NICOLAS DE LA TAILL
88.2237PETILLON ALEXIS36FRABLARINGHEM2:06:492:06:525:05 11.8253sehWITTES
89.2165SOUILLIEZ GUILLAUME40FRALAPRUNCOMP2:07:032:07:095:06 11.8026v1hLAPUGNOY
90.2355FTOURNOUX ALEXANDRA36FRAS/L AC VILLENEU2:07:132:07:135:06 11.791sefMARCQ EN BAROEUL
91.2455MODRZEJEWSKI STEPHANE39FRA2:07:212:07:305:06 11.7754sehSALLAUMINES
92.2084BOURSILLON JOËL41FRA2:07:052:07:315:07 11.7627v1hLILLE
93.2131DEBARGE BRUNO48FRACV BETHUNE2:07:322:07:335:07 11.7628v1hBEUVRY
94.2548AMEUR NORY43FRA2:07:352:07:355:07 11.7629v1h
95.2277CADART-LEROY NICOLAS35FRA2:07:382:07:435:07 11.7555sehCONCHIL LE TEMPLE
96.2365FOLCKEN GUY63FRAVAFA2:07:462:07:465:07 11.742v3hHELLEMMES-LILLE
97.2503LEFEBVRE OLIVIER37FRA2:07:482:07:515:07 11.7356sehMARCQ EN BAROEUL
98.2089ESPINOS ALBERTO36ESPLILLE TRIATHLON2:07:492:07:545:07 11.7357sehWIJTSCHATE
99.2386LEFRAIRE SAMUEL31FRAJC BULLY2:07:262:07:575:08 11.7258sehSAINS-EN-GOHELLE
100.2267HOGUET SEBASTIEN41FRAC.P.S.S. CARVIN2:07:562:07:585:08 11.7230v1hLIBERCOURT
101.2083LEBAS TONIO26FRAASLA/ TEAM MY R2:08:002:08:005:08 11.7259sehCYSOING
102.2311BATAILLE GREGORY43FRA2:08:002:08:055:08 11.7131v1hRANG DU FLIERS
103.2380SCHLAUBERG YANNICK44FRACOACH SPORT SAN2:08:192:08:205:08 11.6932v1hHARNES
104.2006PRZYBYSZEWSKI YOHAN28FRARUN ON LINE2:08:242:08:275:09 11.6860sehANGRES
105.2406DEBRAY KEVIN30FRA2:08:352:08:455:09 11.6561sehWANQUETIN
106.2457L'HOMME RAYNALD40FRACH'TRAILERS TEA2:08:432:08:535:10 11.6433v1hANGRES
107.2361PIAU ALEXANDRE37FRATEAM TRAIL GRAV2:08:502:08:535:10 11.6462sehGRAVELINES
108.2266HEYNDRICKX MAXENCE32FRATRIATHLON ORCHI2:08:432:08:535:10 11.6463sehPONT A MARCQ
109.2258AUCHART MICKAËL42FRACPSS CARVIN2:08:572:08:595:10 11.6334v1hESTEVELLES
110.2400PELIKS OLIVIER44FRA2:08:592:09:095:10 11.6235v1hSAINT ANDRÉ
111.2363MERLIN MICKAËL39FRASAINT VENANT AT2:09:112:09:135:11 11.6164sehHINGES
112.2297MARTIN FRANÇOIS40FRAX-TERRILS2:08:532:09:245:11 11.5936v1hPECQUENCOURT
113.2226THIRY VINCENT32FRAASTRE CREILLOIS2:09:272:09:285:11 11.5965sehVERBERIE
114.2018BOË YANNICK42FRA2:09:232:09:325:11 11.5837v1hNOYELLES LES VERMELLES
115.2076WENZEL SYLVAIN45FRA2:09:252:09:405:12 11.5738v1hHOUDAIN
116.2055CARPENTIER JEAN-RENÉ55FRAJOGGING ET ATHL2:09:392:09:425:12 11.579v2hPONT-À-MARCQ
117.2333ROUSSEL DIDIER53FRALA GORGUE ATHLE2:09:342:09:555:12 11.5510v2hLA GORGUE
118.2518CASTILLE GUY41FRA2:10:072:10:075:13 11.5339v1hPERNES
119.2323DUQUESNOY MATHIEU35FRA2:10:402:10:515:15 11.4666sehBARLIN
120.2080POUILLY ERIC48FRATRRM ANNEZIN2:10:472:10:535:15 11.4640v1hBETHUNE
121.2531LORIDAN JEROME45FRATEAM RRM ANNEZI2:10:472:10:535:15 11.4641v1hVAUDRICOURT
122.2417LOBZIAK CHRISTOPHE46FRAFOREST RUNNING 2:10:462:10:545:15 11.4642v1hVILLENEUVE D'ASCQ
123.2378LEROY JEAN-BAPTISTE36FRA2:10:362:10:555:15 11.4667sehSAVY-BERLETTE
124.2344GOUIN MICKAEL43FRAVAFA2:10:552:10:565:15 11.4643v1hMONS EN BAROEUL
125.2444DEGAND ARNAUD38FRA2:10:532:10:575:15 11.4668sehBAILLEUL SIR BERTHOULT
126.2280GIBORY YANN36FRAFOULÉES ATHLETI2:10:452:10:595:15 11.4569sehWASQUEHAL
127.2442HANQUET BENJAMIN25FRARUNNING'GROUP2:10:392:10:595:15 11.4570sehBRUAY-LA-BUISSIERE
128.2325SZYMANSKI ALBAN34FRAFOULÉES ATHLETI2:10:472:10:595:15 11.4571sehMARQUETTE LEZ LILLE
129.2029LEVOIR PATRICK49FRAAUBIGNY RUNNING2:10:512:11:005:15 11.4544v1hSAVY BERLETTE
130.2290HERMETZ CLAUDE61FRAASDH2:10:572:11:035:15 11.453v3hSIRACOURT
131.2425FCUISINIER SOPHIE37FRAS/L ATHLÉTISME 2:11:012:11:045:15 11.442sefAVION
132.2342MARLIERE FREDERIC44FRARUNNING662:11:042:11:075:15 11.4445v1hALLOUAGNE
133.2436CRESSENT GABRIEL37FRAARTOIS ATHLÉTIS2:10:562:11:125:15 11.4372sehBRUAY
134.2371OUSTLANT AURELIEN34FRA2:11:002:11:125:15 11.4373sehSALOME
135.2269LEFEBVRE JULIEN41FRAFOULÉES ATHLETI2:11:012:11:165:16 11.4346v1hCROIX
136.2190LEFEBVRE JONATHAN34FRA2:11:172:11:235:16 11.4274sehHESDIGNEUL LES BÉTHUNE
137.2337BITEBIERE LAURENT44FRA2:11:312:11:335:16 11.4047v1hBULLY LES MINES
138.2122TASIEMSKI PATRICK42FRAARTOIS ATHLÉTIS2:11:192:11:335:16 11.4048v1hMAGNICOURT EN COMTÉ
139.2272BILE ALAIN50FRA2:11:482:11:525:17 11.3811v2hTÉTEGHEM
140.2132POULET JEAN-LUC54FRACOURIR AU MONT 2:11:462:11:555:17 11.3712v2hHAZEBROUCK
141.2483VANDERMARLIERE GUILLAUME33FRA2:12:022:12:055:17 11.3675sehCOMINES
142.2271VAESEN STEVEN33FRA2:12:032:12:075:18 11.3576sehANNEZIN
143.2304ROUGEGREZ BENOIT34FRA2:12:022:12:075:18 11.3577sehABLAIN SAINT NAZAIRE
144.2459GALVAIRE CHRISTOPHE50FRACH'TRAILERS TEA2:12:022:12:105:18 11.3513v2hANGRES
145.2452LETAILLE CEDRIC44FRAARTOIS ATHLÉTIS2:12:122:12:295:18 11.3249v1hHAILLICOURT
146.2523ARGENTIN BENOIT35FRA2:12:232:12:365:19 11.3178sehAUDREHEM
147.2513MACHEN JEREMIE38FRAVAFA2:12:412:12:445:19 11.3079sehALLENNES LES MARAIS
148.2369BIGAYON FRANCK36FRAAMIS RUNNERS DU2:12:362:12:525:19 11.2980sehVIESLY
149.2146DEPELCHIN JULIEN32FRATEAM DIGESTSCIE2:12:472:12:585:20 11.2881sehLILLE
150.2195BELLET JEAN-FRANCOIS46FRALYS CALAIS TRIA2:12:592:13:005:20 11.2850v1hZUTKERQUE
151.2120FRANCOIS JÉRÔME42FRAASEC 802:13:102:13:265:21 11.2451v1hESTREES LES CRECY
152.2468NIVEL VALENTIN23FRAASEC ETRÉES LES2:13:112:13:275:21 11.2482sehLE BOISLE
153.2401MOREELS OLIVIER44FRA2:13:372:13:395:21 11.2252v1hHERBELLES
154.2470BASSEUX PAUL56FRARCA ARRAS2:13:442:13:445:21 11.2214v2hIZEL LEZ HAMEAU
155.2540LEPLUS DOMINIQUE55FRA2:13:292:13:455:21 11.2215v2hSTEENWERCK
156.2512DELPLACE JEREMY36FRA2:13:292:13:465:22 11.2183sehSOUCHEZ
157.2133CAINE FREDERIC45FRA2:13:512:13:545:22 11.2053v1hGIVENCHY EN GOHELLE
158.2034WIECKOWIAK DOMINIQUE50FRAWIECKOSS TEAM2:13:592:14:015:22 11.1916v2hBOUVIGNYBOYEFFLES-
159.2019FARDEL EDDY44FRA2:14:022:14:055:22 11.1954v1hAGNIERES
160.2127FARDEL DAVID43FRA2:14:042:14:195:23 11.1755v1hLA GORGUE
161.2101GERVOISE DIMITRI43FRAUS HAM TRIATHLO2:13:472:14:195:23 11.1756v1hCOTTENCHY
162.2212COISNE CESAR33FRA2:14:252:14:275:23 11.1684sehMARCQ EN BAROEUL
163.2373NEVEJANS KÉVIN24FRATROYES2:14:172:14:395:24 11.1485sehSAINTE SAVINE
164.2201JANLIN CHRISTOPHE49FRA2:14:432:14:475:24 11.1357v1hPROUVY
165.2546ROLLIN FABIEN43FRA2:14:592:15:035:25 11.1158v1h
166.2343DELACHAMBRE NICOLAS29FRARCA TRIATHLON2:14:562:15:075:25 11.1086sehAVESNES LE COMTE
167.2118JOLY ROMAIN32FRA2:14:562:15:105:25 11.1087sehARRAS
168.2420LEJEUNE OLIVIER53FRAFOOTING CLUB DE2:14:592:15:175:25 11.0917v2hBOURS
169.2129DUPONCHELLE JEAN BERNARD44FRA2:15:082:15:195:25 11.0959v1hGONNEHEM
170.2537CALMÉ BENJAMIN24FRA2:15:102:15:215:25 11.0888sehPROUVY
171.2180BEHAGHEL AUGUSTIN36FRA2:15:462:15:515:27 11.0489sehLA GORGUE
172.2528HERBIN AURELIEN30FRA2:15:552:16:145:27 11.0190sehNAVES
173.2454FATOUX NICOLAS38FRA2:15:512:16:155:27 11.0191sehSERVINS
174.2256RYCKEWAERT XAVIER38FRA2:15:552:16:205:28 11.0092sehWIMEREUX
175.2114CARLU MARC39FRALES LOUPS BLANC2:16:092:16:235:28 11.0093sehLABOURSE
176.2248MORTIER CEDRIC40FRA2:16:082:16:245:28 11.0060v1hDIVION
177.2388PRUVOST ROMAIN29FRATEAM TRAIL 622:16:242:16:315:28 10.9994sehBLEQUIN
178.2137BOUTRY MARTIN42FRATEAM TIBET LIBR2:17:052:17:135:30 10.9361v1hSAINT JANS CAPPEL
179.2254FDENORME EMILIE31FRAOSM LOMME2:17:042:17:225:30 10.923sefHELLEMMES
180.2001GUICHENEY BENOIT48FRA2:17:202:17:425:31 10.8962v1hVENDIN LES BETHUNE
181.2335DELATTRE JEAN62FRALONGUENESSE NAT2:17:372:17:435:31 10.894v3hWIZERNES
182.2288CHEDEMAIL FRANÇOIS34FRA2:17:192:17:435:31 10.8995sehLILLE
183.2451COTELLE MICKAEL45FRAJOG ABLAIN2:17:362:17:485:31 10.8963v1hARRAS
184.2056FLE GALL ANNE35FRA2:17:392:17:505:31 10.884sefMARCQ EN BAROEUL
185.2147GODEFROY THIERRY51FRABÉTHUNE ATHLÉTI2:17:482:17:525:31 10.8818v2hHAILLICOURT
186.2440BRUTSAERT FRANCK43FRACROSS DUATHLON 2:17:562:17:565:32 10.8864v1hZEGERSCAPPEL
187.2328MERLOT JÉRÔME39FRA2:17:462:18:025:32 10.8796sehLIEVIN
188.2450ASTORGUES PIERRE34FRA2:17:472:18:025:32 10.8797sehHAVERSKERQUE
189.2396GUILBERT FRÉDÉRIC37FRA2:17:472:18:025:32 10.8798sehHAZEBROUCK
190.2095SALOME GILLES48FRA2:17:432:18:085:32 10.8665v1hMERVILLE
191.2119JOLY NICOLAS37FRARC ARRAS2:17:562:18:105:32 10.8699sehANZIN SAINT AUBIN
192.2315MESTACK STEPHANE42FRAWILD TEAM TRIAT2:18:122:18:185:32 10.8566v1hENNEVELIN
193.2193FANSEL CHRISTELLE36FRAACVA VAFA2:18:122:18:195:32 10.855sefHELLEMMES LILLE
194.2046MIGASZEWSKI FRANCK40FRA2:18:192:18:245:33 10.8467v1hBRUAY LA BUISSIERE
195.2182BOURIQUET ROMAIN28FRA2:18:322:18:335:33 10.83100sehEMMERIN
196.2359WAROT ARNAUD37FRA2:18:252:18:335:33 10.83101sehDOUAI
197.2092LE BAIL FREDERIC56FRA2:18:012:18:375:33 10.8219v2hMARCQ EN BAROEUL
198.2108TRASSY MORGAN40FRA2:18:262:18:385:33 10.8268v1hIZEL LES HAMEAU
199.2336DAUCHEZ LÉON53FRA2:18:352:18:405:33 10.8220v2hAUMERVAL
200.2502FCARON AURELIE32FRABLARINGHEM TRAI2:18:372:18:415:33 10.826sefSAINT VENANT
201.2341DESPREZ DOMINIQUE65FRACPSS CARVIN2:18:452:18:475:34 10.815v3hCARVIN
202.2511VANCAYZEELE CÉDRIC37FRA2:18:492:19:015:34 10.79102sehHAILLICOURT
203.2128LEMBREZ ROMUALD42FRACOURIR A MERVIL2:18:402:19:085:34 10.7869v1hMERVILLE
204.2057PILLE NICOLAS41FRACOLLECTIF RMT2:19:092:19:175:35 10.7770v1hHOUCHIN
205.2382FGAMBLIN VIRGINIE36FRA2:19:342:19:385:36 10.747sefCRAYWICK
206.2039LELEU VINCENT45FRA2:19:412:19:475:36 10.7371v1hHAILLICOURT
207.2356BONIFACE FRANCK29FRA2:19:492:19:515:36 10.73103sehBAUVIN
208.2490VANEXE LAURENT45FRATEAM RUNAO2:19:422:19:535:36 10.7272v1hPLOEGSTEERT
209.2411MERIAN CYRILLE40FRAASDH2:19:582:20:035:37 10.7173v1hHESDIN
210.2310COLAU GERALD47FRAAMAAC2:19:432:20:045:37 10.7174v1hLA NEUVILLE LES BRAY
211.2200BAILLEUX VALENTIN20FRA2:20:032:20:085:37 10.712eshVALENCIENNES
212.2286FDURANT-CHEVAL CLOTILDE49FRAHERLIES RANDO R2:20:182:20:215:37 10.691v1fHERLIES
213.2052LEROY YVES47FRA2:20:382:20:485:38 10.6575v1hHAMEL
214.2077WALLART CHRISTOPHE51FRA2:20:462:20:485:38 10.6521v2hESTREE CAUCHY
215.2072DHALLEINE JONATHAN38FRA2:21:172:21:325:40 10.60104sehBILLY-BERCLAU
216.2449GRZEGORZEWSKI LUDOVIC43FRA2:21:502:21:515:41 10.5776v1hLAMBRES LEZ DOUAI
217.2261BUQUET STEPHANE48FRACAC CALOTERIE2:21:232:21:535:41 10.5777v1hETAPLES
218.2306FMOTHERON CECILE53FRAJOGGING CLUB DE2:21:372:22:005:41 10.561v2fARDRES
219.2466DUQUENOY DAVID41FRAJOGGING CLUB LI2:21:362:22:005:41 10.5678v1hBONNINGUES-LES-ARDRES
220.2216HONORÉ RÉMY37FRAJOGGING CLUB LI2:21:362:22:005:41 10.56105sehLA CAPELLE LES BOULOGNE
221.2079LEMAIRE CEDRIC38FRAAMICALE VAL DE 2:21:322:22:045:41 10.56106sehPERNOIS
222.2016LE DÛ MATHIEU30FRA2:21:572:22:075:42 10.55107sehLILLE
223.2398TRANCHANT BERTRAND45FRACOACH SPORT SAN2:22:132:22:195:42 10.5479v1hHENIN BEAUMONT
224.2217BENALLAL MOHAMED51FRA2:22:182:22:195:42 10.5422v2hBRUAY LA BUISSIERE
225.2257DEQUIDT THIBAUT35FRA2:22:032:22:275:42 10.53108sehLOMPRET
226.2003NACINOVICH FREDERIC39FRAJOG'ABLAIN2:22:082:22:305:42 10.53109sehLIEVIN
227.2223DEVOS FABIEN30FRA2:22:332:22:355:43 10.52110sehWAHAGNIES
228.2475LEROY NUMA33FRA2:22:062:22:395:43 10.52111sehFLIXECOURT
229.2090ROUPIN LAURENT40FRACOLLECTIF RMT2:22:342:22:435:43 10.5180v1hRUITZ
230.2218EVRARD DENIS48FRAJOGGINGCLUBLICQ2:22:212:22:445:43 10.5181v1hLICQUES
231.2156TRASSY DAMIEN40FRA2:22:382:22:495:43 10.5082v1hPILLON
232.2351CADART VALENTIN27FRA2:22:412:22:535:43 10.50112sehLENS
233.2191FKASPERCZYK EMILIE34FRA2:22:502:22:555:43 10.508sefVILLENEUVE D'ASCQ
234.2192DUQUESNE ARNAUD43FRA2:22:512:22:565:44 10.4983v1hVILLENEUVE D'ASCQ
235.2236BOUREL DIDIER50FRAAMAAC2:22:402:23:005:44 10.4923v2hBUCQUOY
236.2253FSANTANDREU CHRISTINE30FRA2:22:402:23:035:44 10.499sefLILLE
237.2250DESREUMAUX NICOLAS32FRA2:22:502:23:085:44 10.48113sehLE BOISLE
238.2376BRUNELLE OLIVIER47FRAHENIN ENDURANCE2:22:582:23:205:44 10.4784v1hBÉNIFONTAINE
239.2404COCQCET BENJAMIN34FRA2:23:102:23:235:45 10.46114sehAVELIN
240.2051MAJORCZYK SÉBASTIEN34FRALES FURETS CAUC2:23:062:23:355:45 10.45115sehCAUCHY-A-LA-TOUR
241.2435BLERVAQUE SEBASTIEN36FRAECLA LANDAS2:23:392:23:425:45 10.44116sehMARCHIENNES
242.2403FTAILLARDAS FLAVIE36FRACAC2:23:202:23:455:45 10.4410sefWAILLY BEAUCAMP
243.2259BOYARD AURELIEN36FRAXTERRILS2:23:162:23:485:46 10.43117sehHORNAING
244.2541PANKANIN GREGOIRE35FRA2:23:442:23:575:46 10.42118sehROUBAIX
245.2516HERMAN PHILIPPE55FRA2:23:552:24:065:46 10.4124v2hBARLIN
246.2384YOUF OLIVIER35FRA2:23:472:24:115:47 10.40119sehWASQUEHAL
247.2330FSMAGGHE MURIEL53FRALES COP1DABORD2:23:552:24:125:47 10.402v2fHOYMILLE
248.2140LIPPENS ERIC54FRAARTOIS ATHLÉTIS2:23:582:24:155:47 10.4025v2hCALONNE SUR LA LYS
249.2104DEFOORT JÉRÉMIE37FRA2:23:452:24:155:47 10.40120sehHÉNIN BEAUMONT
250.2410BECUWE DAVID48FRALES COP1 D ABOR2:24:052:24:245:47 10.3985v1hREXPOEDE
251.2143LAVERSIN SAMUEL37FRACOURIR À MERVIL2:23:572:24:245:47 10.39121sehMERVILLE
252.2308PAILLART GERARD44FRA2:24:392:24:485:48 10.3686v1hBIACHE SAINT VAAST
253.2399FTRANCHANT MARIE HELENE44FRACOACH SPORT SAN2:24:282:24:505:48 10.362v1fHENIN BEAUMONT
254.2437ROBERT YANNICK41FRAHENIN ENDURANCE2:24:442:24:505:48 10.3687v1hHENIN BEAUMONT
255.2111DEBLOCK GREGORY44FRAAC SERVINS2:24:382:25:015:49 10.3488v1hBOUVIGNY BOYEFFLES
256.2372DELEPAUT NICOLAS28FRAAC VILLERS-COTT2:24:392:25:015:49 10.34122sehVILLERS-COTTERÊTS
257.2349BISIAU PHILIPPE56FRAPASS RUNNING2:24:522:25:055:49 10.3426v2hBOUSIGNIES
258.2294BISIAUX LAURENT48FRAETOILE DE OIGNI2:24:542:25:075:49 10.3489v1hOIGNIES
259.2509MARTIN DOMINIQUE44FRA2:24:492:25:095:49 10.3390v1hCHERISY
260.2497FMOGUET CÉCILE40FRARCA TRIATHLON2:24:522:25:105:49 10.333v1fCHÉRISY
261.2002SABBADINI GUILLAUME31FRA2:25:102:25:335:50 10.31123sehLOZINGHEM
262.2255PLATEEL DIDIER53FRALONGUENESSOIS2:25:062:25:375:50 10.3027v2hBLENDECQUES
263.2049LEROY OLIVIER37FRA2:25:492:26:045:51 10.27124sehSTEENBECQUE
264.2536VANDOOREN PAUL37FRA2:25:492:26:095:51 10.26125sehSAINT NICOLAS
265.2015DHAINAUT JEROME40FRAAMIS RUNNERS DU2:25:592:26:155:51 10.2691v1hFOUQUEREUIL
266.2472LORCHNER GUILLAUME32FRA2:25:432:26:165:52 10.26126sehLA NEUVILLE
267.2375DELSERT EMMANUEL47FRASAINT VENANT2:26:222:26:345:52 10.2492v1hCALONNE SUR LA LYS
268.2360INGLART JEAN MICHEL43FRAASP LENS2:26:172:26:375:52 10.2393v1hSAINS EN GOHELLE
269.2423BILLAUT OLIVIER40FRALOUPS BLANCS2:26:342:26:475:53 10.2294v1hLABOURSE
270.2422BRICHE JULIEN36FRALES COUREURS DU2:26:332:26:475:53 10.22127sehLABOURSE
271.2278GOHIER FLORENT28FRA2:26:322:26:495:53 10.22128sehCROIX
272.2035CRANDAL CHRISTOPHE45FRA2:26:432:26:585:53 10.2195v1hBLÉRIOT
273.2456DELANGUE ALEXANDRE27FRATRIATHLON LITTO2:26:352:27:015:53 10.20129sehDUNKERQUE
274.2162DELANOY GÉRY44FRARCA TRIATHLON2:26:252:27:025:53 10.2096v1hGRAND-RULLECOURT
275.2053KRAWCZYK STEPHANE38FRAARTOIS ATHLETIS2:26:552:27:115:54 10.19130sehHOUDAIN
275.2061LITREM PASCAL53FRAARTOIS ATHLETIS2:27:042:27:115:54 10.1928v2hHAILLICOURT
277.2312DEBAIN JOHAN38FRA2:27:072:27:175:54 10.18131sehRUITZ
278.2519POULTIER STEPHANE47FRASTELLA2:27:162:27:215:54 10.1897v1hROLLANCOURT
279.2155DELELIS LUDOVIC44FRALUDOVIC.DELELIS2:27:002:27:275:54 10.1798v1hMERVILLE
280.2124LECOCQ MARTIAL40FRASAINT VENANT AT2:27:182:27:285:54 10.1799v1hLILLERS
281.2125DESPREZ FRANCK45FRAOSA2:27:182:27:285:54 10.17100v1hAIRE SUR LA LYS
282.2168BOUCHER NICOLAS44FRA2:26:592:27:285:54 10.17101v1hPROVIN
283.2265FRANEK YOHANN32FRA2:27:042:27:305:54 10.17132sehMAISNIL LES RUITZ
284.2264LEGRAND MAXIME34FRA2:27:042:27:315:55 10.17133sehAMES
285.2350FLEFEBVRE AUDREY37FRA2:27:092:27:315:55 10.1711sefHEM
286.2078MAILLARD ARNAUD37FRA2:27:062:27:355:55 10.16134sehHAILLICOURT
287.2215BODART CHRISTIAN53FRA2:27:162:27:485:55 10.1529v2hFENAIN
288.2229CARON BRUNO55FRA2:27:182:27:505:55 10.1530v2hCOULOGNE
289.2370BOUCAULT CHARLES45FRA2:27:392:27:535:55 10.14102v1hARRAS
290.2071HERLEIN JEAN MARC52FRA2:27:562:28:025:56 10.1331v2hOURTON
291.2305FRÉDÉRIC MARTIN43FRA2:27:492:28:045:56 10.13103v1hFLORINGHEM
292.2485MULLER HANTZ31FRAMA MISSION 20172:28:082:28:255:57 10.11135sehHAVELUY
293.2276BERON CHRISTOPHER24FRA2:28:062:28:365:57 10.10136sehBETHUNE
294.2326BULTEL JEAN-PIERRE50FRA2:28:332:28:475:58 10.0832v2hHINGES
295.2252DEMOULIN STEEVE38FRA2:28:542:29:015:58 10.07137sehMONTIGNY EN GOHELLE
296.2521NOLLET LOUIS33FRATEAM 3 MONTS2:29:022:29:085:58 10.06138sehFARBUS
297.2331SMAGGHE JOSE53FRALES COP1DABORD2:29:152:29:335:59 10.0333v2hHOYMILLE
298.2345FMICHEAUX CHARLOTTE30FRA2:29:352:29:476:00 10.0112sefPÉRENCHIES
299.2030MARLIER ERIC54FRABETHUNE ATHLÉTI2:29:112:29:486:00 10.0134v2hHINGES
300.2065FLEPAGE CAROLINE45FRA2:29:312:29:516:00 10.014v1fLYS LEZ LANNOY
301.2464LENGLIN PASCAL52FRACH'TRAILEURS TE2:29:422:29:516:00 10.0135v2hBULLY LES MINES
302.2428FDEVINEAUX NATHALIE44FRARC ARRAS TRIATH2:29:312:29:516:00 10.015v1fANZIN SAINT AUBIN
303.2358PEREIRA MANUEL39FRA2:29:532:30:096:01 9.99139sehMERVILLE
304.2239LE SUAVÉ LOÏC31FRA2:29:532:30:166:01 9.98140sehBOISLEUX SAINT MARC
305.2178LABITTE GREGORY46FRARUNNING GROUP2:29:542:30:166:01 9.98104v1hBRUAY
306.2159SENECHAL CHRISTOPHE34FRA2:29:542:30:176:01 9.98141sehFOURNES EN WEPPES
307.2008PRATO SEBASTIEN37FRA2:29:572:30:206:01 9.98142sehBARLIN
308.2283DEWISME PHILIPPE48FRAH2R2:30:282:30:336:02 9.96105v1hLA GORGUE
309.2405ALBICOCCO MATHIEU24FRA2:30:102:30:336:02 9.96143sehCAMBLAIN CHATELAIN
310.2427VANDOOREN MICHEL45FRARC ARRAS TRIATH2:30:172:30:356:02 9.96106v1hANZIN SAINT AUBIN
311.2498FILLIERE CHRISTOPHE43FRA2:30:272:30:366:02 9.96107v1hTHUMERIES
312.2481FPACQUIN AMANDINE24FRA2:30:392:30:396:02 9.9613sefMAESTRIS LILLE
313.2539BLERVAQUE FRANCOS53FRACOURIR AU MONT 2:30:332:30:426:02 9.9536v2hMETEREN
314.2392BUSZ JEROME43FRA2:30:172:30:456:02 9.95108v1hVALENCIENNES
315.2206FMRUCZEK EMMANUELLE35FRAAMIS RUNNERS DU2:30:212:30:466:02 9.9514sefVALENCIENNES
316.2506VANDERBEKEN TIMOTHÉE36FRAWASPS TEAM RUNN2:30:462:30:546:03 9.94144sehLINSELLES
317.2469BOYARD LAURENT44FRAACB2:30:282:30:566:03 9.94109v1hTHIEPVAL
318.2347CRETON SEBASTIEN46FRAVERMELLES AC2:31:082:31:216:04 9.91110v1hBULLY LES MINES
319.2249FROUX ALICE35FRA2:31:112:31:256:04 9.9115sefLILLE
320.2362HOLARD XAVIER42FRAAUBIGNY RUNNING2:31:002:31:306:04 9.90111v1hGAUCHIN LEGAL
321.2177FGREGORCIC INGRID46FRAARTOIS ATHÉLTIS2:31:422:31:426:05 9.896v1fBRUAY LA BUISSIÈRE
322.2246PARMENTIER JEROME44FRA2:31:142:31:436:05 9.89112v1hLENS
323.2322BOLLENGIER SYLVAIN45FRAASP LENS2:31:252:31:466:05 9.88113v1hTHELUS
324.2043FVERDIERE ISABELLE50FRAAUBIGNY RUNNING2:31:512:31:596:05 9.873v2fCAPELLE FERMONT
325.2412DRUJENT CYRILLE43FRATEA TRAIL 622:31:512:32:006:05 9.87114v1hPARENTY
326.2346GRESSIER YANNICK49FRATEAM TRAIL 622:31:512:32:006:05 9.87115v1hZOTEUX
327.2465ZULIANI EDDY46FRAASSOCIATION COU2:31:362:32:046:05 9.87116v1hBAPAUME
328.2491COUSIN NICOLAS36FRAWASPS2:32:062:32:136:06 9.86145sehARMENTIERES
329.2100MOROY CHRISTOPHE40FRAKEEP COOL CSB2:32:082:32:276:06 9.84117v1hBEUVRY LA FORET
330.2409FMARTEL CHRISTINE38FRALOVE TRAIL2:32:522:32:556:07 9.8116sefWASQUEHAL
331.2421PERIN FLORIAN35FRALOVE TRAIL2:32:522:32:556:07 9.81146sehLAMBERSART
332.2321FBROGNARD STEPHANIE43FRAGOLDEN SPOON2:32:352:33:036:08 9.807v1fCAMBRIN
333.2320VERON LOIC47FRA2:32:352:33:036:08 9.80118v1hBETHUNE
334.2117WICQUART ERIC54FRA2:32:462:33:046:08 9.8037v2hLAVENTIE
335.2097FDE BOER JULIE39FRA2:32:532:33:046:08 9.8017sefAUBERS
336.2547AMEL BOUMEDIENNE50FRARANDONNEURS HER2:32:502:33:076:08 9.8038v2hHERSIN COUPIGNY
337.2207PARMENT FABIEN47FRAARTOIS ATHLETI2:33:022:33:106:08 9.79119v1hBRUAY LA BUISSIERE
338.2211PRINGARBE DIDIER52FRAAMICALE DU VAL 2:32:452:33:166:08 9.7939v2hAMIENS
339.2348FCHUDY ALINE46FRAVAFA2:32:592:33:276:09 9.788v1fAVELIN
340.2042CASTRIQUE MICHEL65FRA2:33:352:33:416:09 9.766v3hBRUAYLABUISSIERE
341.2110FOURNIER BENJAMIN23FRA2:33:382:33:526:10 9.75147sehVERQUIGNEUL
342.2109FOURNIER GUILAIN52FRA0620482:33:392:33:536:10 9.7540v2hVERQUIGNEUL
343.2274VILETTE LAURENT41FRA2:33:362:34:016:10 9.74120v1hBILLY MONTIGNY
344.2105EL BADMOUSSI WALID25MAR2:33:402:34:116:11 9.73148sehLILLE
345.2354CUVILLIER FLORENT38FRA2:33:512:34:126:11 9.73149sehNEUF BERQUIN
346.2431FDUQUESNE SOPHIE39FRATRIATHLON LIEVI2:34:112:34:226:11 9.7218sefHAILLICOURT
347.2102FLAHEURTE VIRGINIE37FRA2:34:012:34:296:11 9.7119sefLILLE
348.2438DESLYPER DIDIER51FRA2:34:472:34:476:12 9.6941v2hLIEVIN
349.2397SIWEK JEAN-PHILIPPE42FRARUNNING'GROUP2:34:392:34:596:12 9.68121v1hLA COMTÉ
350.2189MARTIN NIKO35FRAARTOIS ATHLÉTIS2:34:362:35:006:12 9.68150sehRAMECOURT
351.2407MARTIN GREGORY35FRAARTOIS ATHLÉTIS2:34:352:35:006:12 9.68151sehCALONNE RICOUART
352.2085BARBIEUX SERGE56FRAARTOIS ATHLETIS2:34:412:35:006:12 9.6842v2hBRUAY LABUISSIERE
353.2433VANDAELE BRUNO52FRAJOGGING CLUB WO2:34:412:35:006:12 9.6843v2hSOCX
354.2032FROJEWSKI AURELIE38FRARUNNING'GROUP2:34:392:35:006:12 9.6820sefDIVION
355.2544DEHORTER NICOLAS37FRA2:34:412:35:006:12 9.68152sehWORMHOUT
356.2432DECROO YANNICK42FRAJOGGING CLUB WO2:34:402:35:016:13 9.68122v1hWORMHOUT
357.2390WANT ERIC53FRAHENIN ENDURANCE2:35:072:35:276:14 9.6544v2hFOUQUIERES LES LENS
358.2302RIDOUX NICOLAS32FRALES LOUPS BLANC2:35:122:35:286:14 9.65153sehHINGES
359.2062FLIMONIER SOPHIE47FRA2:35:142:35:346:14 9.649v1fRUMEGIES
360.2268HAU ARTHUR25FRAFOULEES ATHLETI2:35:262:35:386:14 9.64154sehWASQUEHAL
361.2270FAYALA MATHILDE23FRAFOULÉES ATHLETI2:35:262:35:386:14 9.6421sefWASQUEHAL
362.2040CARDON GAËTAN33FRA2:35:402:35:416:14 9.64155sehHEM
363.2012PONTIER CLÉMENT33FRA2:35:412:35:416:14 9.64156sehWAMBRECHIES
364.2013CLAYTON MAXIMILIEN31FRA2:35:412:35:426:14 9.63157sehLE PERREUX SUR MARNE
365.2103BAUDLOT FREDERIC36FRALIDLSOXYGENE2:35:252:35:456:14 9.63158sehWILLEMS
366.2439CUVILLIER FRANCOIS40FRA2:35:452:36:076:15 9.61123v1hLIEU SAINT AMAND
367.2048HARDY STEVE45FRA2:36:012:36:166:16 9.60124v1hWIJTSCHATE
368.2066LETUFFE PATRICK51FRATOLATHLON BÉTHU2:36:202:36:226:16 9.5945v2hVERQUIN
369.2222LEROUX MATHIEU36FRACOLLECTIF RMT2:36:212:36:306:16 9.58159sehGOUY SERVINS
370.2245SEGERS DOMINIQUE40FRAASLA2:36:182:36:356:16 9.58125v1hCOMINES
371.2522LOMBARD THIERRY52FRAFOULÉES SAIGHIN2:36:332:36:466:17 9.5746v2hHAISNES
372.2419WEPPE LUDOVIC39FRA2:36:432:36:506:17 9.56160sehNOEUX LES MINES
373.2495BIGAYON MICKAEL40FRA2:36:282:36:556:17 9.56126v1hBAPAUME
374.2010MOITEL BENOIT23FRAAIRE SUR LA LYS2:36:282:36:586:17 9.56161sehAIRE SUR LA LYS
375.2031MIRVILLE ARNAUD44FRA2:37:082:37:256:18 9.53127v1hORCHIES
376.2187BERNARD ALAIN61FRA2:36:552:37:306:18 9.527v3hRONCHIN
377.2366VANDERBEKEN YANNICK49FRALES COP1 D'ABOR2:37:212:37:396:19 9.52128v1hBIERNE
378.2121WICQUART PIRRE-MARIE50FRA2:37:312:37:486:19 9.5147v2hFLORINGHEM
379.2228LEFLOND BERTRAND60FRA2:37:502:37:506:19 9.508v3hHERSIN COUPIGNY
380.2316FPASSEL ANNE-VALÉRIE42FRACOACH SPORT SAN2:37:362:37:556:19 9.5010v1fLIEVIN
381.2430CHIEUX SAMUEL45FRARAVENSBERG2:37:412:37:586:20 9.50129v1hSTEENWERCK
382.2461LESPRIT RAPHAËL43FRA2:38:032:38:156:20 9.48130v1hANZIN SAINT AUBIN
383.2033ROYER STÉPHANE44FRA2:38:142:38:196:20 9.48131v1hGONNEHEM
384.2260DUPONT ERIC51FRARUNNING'GROUP2:37:532:38:246:21 9.4748v2hMAISNIL LES RUITZ
385.2313BONJOUR LAURENT43FRA2:38:012:38:256:21 9.47132v1hANZIN SAINT AUBIN
386.2067CHENET HERVE50FRA2:38:272:38:556:22 9.4449v2hHELLEMMES
387.2041FCASTRIQUE MARIE56FRAARTOIS ATHLÉTIS2:38:562:39:036:22 9.434v2fBRUAYLABUISSIERE
388.2282BOQUET BRUNO54FRAAMICALE DU VAL 2:39:112:39:276:23 9.4150v2hRUBEMPRE
389.2244TAMA FREDERIC41FRA2:39:122:39:376:24 9.40133v1hBURBURE
390.2285BRUNEEL ARNAUD46FRAHERLIES RANDO R2:39:442:39:496:24 9.39134v1hARLEUX EN GOHELLE
391.2059LEBRUN CEDRIC39FRAH2R (HERLIES RA2:39:232:39:496:24 9.39162sehSAINGHIN-EN-WEPPES
392.1003FBRUNIAUX-CERTOSIO MARIE-O49FRA2:39:232:39:496:24 9.3911v1fVILLERS POL
393.2027GRAVE JACQUES64FRA2:39:412:40:006:24 9.389v3hLONGUENESSE
394.2230GARENAUX STÉPHANE51FRA2:39:372:40:136:25 9.3651v2hCALAIS
395.2158VEZILIER MICK59FRAJ.C.BULLY LES M2:39:492:40:246:25 9.3552v2hMEURCHIN
396.2044MELLICK JACQUES56FRA2:40:212:40:276:26 9.3553v2hBETHUNE
397.2415BEQUEREL THOMAS42FRA2:40:462:40:516:27 9.33135v1hTOURCOING
398.2210FDUCROCQ CHRISTELLE42FRA2:41:002:41:076:27 9.3112v1fBETHONSART
399.2009RINGOT FRANCK51FRAS.O.CALAIS ATHL2:41:132:41:296:28 9.2954v2hSANGATTE
400.2123MALFAIT STÉPHANE49FRA2:41:392:41:506:29 9.27136v1hRONCHIN
401.2441DUQUENNE CHRISTOPHE52FRA2:41:392:42:046:29 9.2655v2hLA BASSEE
402.2209CLAY VINCENT45FRA2:42:222:42:306:30 9.23137v1hBETHONSART
403.2082FOGAR ANNICK53FRA2:42:192:42:386:31 9.225v2fSOMAIN
404.2136LANDUYT LAURENT48FRA2:42:072:42:386:31 9.22138v1hSAINT ANDRE LEZ LILLE
405.2526DELACOURT CHRISTOPHE41FRA2:42:302:43:086:32 9.20139v1hRAILLECOURT STE OLLE
406.2063BIALLAIS PATRICK55FRA2:43:072:43:166:32 9.1956v2hMONT BERNANCHON
407.2524FTHERY CHRISTELLE37FRA2:42:412:43:176:32 9.1922sefAVESNES LES AUBERT
408.2525BAFCOP CHRISTIAN61FRA2:42:422:43:186:32 9.1910v3hROMERIES
409.2054CARON MATTHIEU30FRA2:43:472:43:596:34 9.15163sehFOUQUEREUIL
410.2126CARON GUILLAUME46FRA2:43:352:44:026:34 9.14140v1hBIACHE ST VAAST
411.2448FBEAUSSART CYNTHIA42FRAHUMANIS2:44:092:44:186:35 9.1313v1fDOUVRIN
412.2477BOUTOILLE GREGORY45FRA2:44:102:44:186:35 9.13141v1hBOUVIGNIES
413.2081VILLAIN RENE67FRA2:44:002:44:196:35 9.1311v3hVALENCIENNES
414.2379FBOUTON MARIE-MADELEINE65FRASERVINS ATHLETI2:44:122:44:256:35 9.121v3fESTREE-CAUCHY
415.2098SVOBODA THOMAS35FRA2:44:192:44:286:35 9.12164sehTOURCOING
416.2134HENNON VINCENT44FRA2:44:082:44:366:36 9.11142v1hMERVILLE
417.2514MARTIN GUILLAUME42FRA2:44:312:44:526:36 9.10143v1hACHICOURT
418.2489COURBOIS JEAN-BAPTISTE32FRA2:44:502:44:556:36 9.10165sehTINCQUES
419.2130FOGER MYRIAM39FRA2:44:322:45:056:37 9.0923sefABBEVILLE
420.2183NOVASIK LUC49FRA2:44:502:45:116:37 9.08144v1hMARLES LES MINES
421.2307FBLOQUEL JESSICA39FRA2:44:432:45:146:37 9.0824sefPERNOIS
422.2113FDURIEZ AUDREY40FRARUN ASCQ2:45:142:45:236:37 9.0714v1fVILLENEUVE D'ASCQ
423.2188FLEFEBVRE LORÈNE30FRATEAM TRAIL OPAL2:45:232:45:426:38 9.0525sefHAZEBROUCK
424.2527MOROSINI CLEMENT35FRA2:45:252:45:446:38 9.05166sehMERRIS
425.2309FCAPPOEN CORALIE32FRA2:45:202:45:506:38 9.0526sefMARCQ EN BAROEUL
426.2142FLAVERSIN MÉLANIE37FRACOURIR À MERVIL2:45:482:46:156:39 9.0227sefMERVILLE
427.2517DEBOUVERIE FRANCK48FRA2:45:582:46:206:40 9.02145v1hLESTREM
428.2161ROBILLARD MICHEL48FRAARTOIS ATHLETIS2:46:072:46:206:40 9.02146v1hMAISNIL LES RUITZ
429.2026FACHE DIDIER59FRACOURIR AU MONT 2:46:292:46:396:40 9.0057v2hMÉTEREN
430.2296DILLIES EDOUARD35FRA2:46:362:46:436:41 9.00167sehFOREST
431.2292FLAQUET RENÉ61FRA2:46:382:47:116:42 8.9712v3hABBEVILLE
432.2486FFERTAS NADIA41FRAAMIS RUNNERS DU2:47:282:47:556:43 8.9315v1fPHALEMPIN
433.2545FUMERY PIERRE-ANTOINE32FRA2:47:312:48:056:44 8.92168sehLILLE
434.2534FDHALLEINE SOPHIE36FRA2:47:462:48:106:44 8.9228sefBILLY BERCLAU
435.2073DUHAUT FRANCIS48FRA2:47:462:48:116:44 8.92147v1hELEU DIT LEAUWETTE
436.2499LEROUX GEOFFREY37FRA2:48:212:48:496:46 8.89169sehMERVILLE
437.2374CRENLEUX VINCENT47FRA2:48:532:49:066:46 8.87148v1hARRAS
438.2205FLEROYER ARIANE51FRAPHILIPPIDÈS CLU2:48:562:49:216:47 8.866v2fTEMPLEUVE EN PEVELE
439.2204LEROYER NICOLAS52FRAPHILIPPIDÈS CLU2:48:562:49:216:47 8.8658v2hTEMPLEUVE EN PEVELE
440.2291DOLLE GABRIEL46FRA2:49:282:49:406:48 8.84149v1hSECLIN
441.2213BORGOLTZ ALEXANDRE32FRA2:50:012:50:046:49 8.82170sehMARCQ EN BAROEUL
442.2424FDOLEZ AURÉLIE32FRA2:50:402:51:136:51 8.7629sefLILLE
443.2394BOUDRY VINCENT51FRALONGUENESSE NAT2:50:472:51:216:52 8.7559v2hSAZINT-OMER
444.2017PAVY SAMUEL52FRACOURIR A BAISIE2:50:592:51:326:52 8.7460v2hCOUTICHES
445.2145HUREZ FREDERIC37FRA2:51:102:51:396:52 8.74171sehLA SENTINELLE
446.2241BRONSARD CLEMENT33FRA2:51:102:51:406:52 8.74172sehNEUVILLE SUR ESCAUT
447.2144FANCHUELO MYLENE38FRA2:51:202:51:466:53 8.7330sefARRAS
448.2298FHENRY ESTELLE40FRA2:51:182:51:536:53 8.7316v1fSIN LE NOBLE
449.2314BAYART FLAVIEN33FRA2:51:532:52:096:54 8.71173sehLABEUVRIÈRE
450.2458FGUILLON ISABELLE37FRA2:52:432:53:106:56 8.6631sefLAMBERSART
451.2135COLPAERT LAURENT47FRACOURIR AU MONT 2:52:432:53:116:56 8.66150v1hBAILLEUL
452.2377ALLET MATTHIEU39FRA2:52:502:53:156:56 8.66174sehANNOEULLIN
453.2408FDECLE CLAUDINE57FRAAMICALE DU VAL 2:53:562:54:196:59 8.617v2fAMIENS
454.2007FRANCOIS LOUIS43FRARUN ASCQ2:55:062:55:147:01 8.56151v1hVILLENEUVE D'ASCQ
455.2106FDALLERY VALERIE50FRA2:55:092:55:327:02 8.558v2fVILLENEUVE D'ASCQ
456.2004FRIMAT GILLES36FRA2:55:012:55:367:02 8.54175sehSOMAIN
457.2069DECRUCQ FRANÇOIS43FRA2:56:212:56:427:05 8.49152v1hMARCQ EN BAROEUL
458.2068FDECRUCQ ERIKA39FRA2:56:202:56:427:05 8.4932sefMARCQ EN BAROEUL
459.2064BOCQUET FRANÇOIS49FRA2:56:202:56:427:05 8.49153v1hLAMBERSART
460.2247FLEDUC BÉNÉDICTE45FRA2:56:332:56:487:05 8.4817v1fHOUTKERQUE
461.2141CADEAU MARTIN30FRA2:56:302:56:597:05 8.48176sehBÉTHUNE
462.2383LORETTE NICOLAS46FRASTI2:56:292:57:017:05 8.47154v1hMERVILLE
463.2251FSERRURIER DELPHINE49FRALONGUENESSE NAT2:56:302:57:027:05 8.4718v1fLONGUENESSE
464.2198GARDE XAVIER34FRA2:56:592:57:217:06 8.46177sehARLEUX
465.2389JUBERT MICKAEL39FRA2:56:532:57:227:06 8.46178sehTEMPLEUVE EN PEVELE
466.2227FPATTE FRÉDÉRIQUE50FRAA.S MARCK2:58:532:59:247:11 8.369v2fWISSANT
467.2387FGUERVILLE ELISE44FRAAC CAPELLOIS3:06:173:06:457:29 8.0319v1fCONDETTE
468.2185TIBERGHIEN THOMAS44FRARUNNEURS DU GRA3:07:123:07:407:31 7.99155v1hHEM
469.2116DEVROUX NICOLAS35FRAAMIS RUNNERS DU3:07:133:07:407:31 7.99179sehVALENCIENNES
470.2184OUMAR LAURENT51FRA3:08:043:08:167:32 7.9761v2hTOURCOING
471.2086GAESTEL OLIVIER35FRA3:08:173:08:247:33 7.96180sehAMBLETEUSE
472.2284FDEWISME ISABELLE46FRAH2R3:10:243:10:517:39 7.8620v1fLA GORGUE
473.2173BOURIEZ ALAIN59FRAH2R HERLIES3:10:263:10:517:39 7.8662v2hHERLIES
474.2025DERNONCOURT LAURENT48FRA3:12:343:12:477:43 7.78156v1hDIVION
475.2075FHERMANT AURORE33FRA3:19:553:20:208:01 7.4933sefDECHY
476.2091VANDYCKE PHILIPPE57FRACOURIR AU MONT 3:21:493:22:018:05 7.4363v2hLAMBERSART
477.2014POIRIEZ JEROME41FRALES FURETS CAUC3:23:403:23:448:09 7.36157v1hAUCHEL
478.2332KUBALA FRANCIS57FRA3:48:343:48:409:09 6.5664v2hBETHUNE
DSQ2480FBUNOU MARIE30FRAsefLILLE
DSQ2504FILLIERE ROMAIN29FRA1:48:191:48:28sehTHUMERIES
DSQ2164BOUTOILLE FRANCK56FRA1:53:501:54:26v2hBETHUNE
DSQ2529CUGNET JEAN-FRANÇOIS40FRACOLLECTIF R.M.T2:03:022:03:02v1hMAISNIL LES RUITZ
DSQ2289CATTEZ FABIEN47FRAHERLIES RANDO R2:03:262:03:26v1hAUBERS
DSQ2023DELANNOY LAURENT39FRA2:04:032:04:33sehBAGNEUX
DSQ2038FLELEU SYLVIE46FRA2:13:452:13:45v1fHAILLICOURT
DNF2317BONEL FREDERIC46FRAAUBINGY RUNNINGv1hGAUCHIN LE GAL
DNF2112DURIEZ ARNAUD40FRARUN ASCQv1hVILLENEUVE D'ASCQ
DNF2385DURIEZ OLIVIER35FRAsehARRAS
DNF2488EVERAERE THOMAS32FRATRIATHLON CLUB sehBAILLEUL
DNF2476GRAVE PHILIPPE53FRAWAMBRECHIESv2hLINSELLES
DNF2243JOSIEN MAXIME37FRATC LIEVINsehBETHUNE
DNF2169TESSON YVES54FRAv2hMARCQ EN BAROEUL
DNF: did not finish; DSQ: disqualified; Speed in km/h
Page: [1]